createdAt,value
2018-11-11T06:06:50.325Z,19.90
2018-11-11T06:09:26.741Z,21.00
2018-11-11T06:12:08.274Z,21.37
2018-11-11T06:14:43.297Z,21.50
2018-11-11T06:17:18.968Z,22.00
2018-11-11T06:20:01.684Z,24.67
2018-11-11T06:22:36.183Z,19.30
2018-11-11T06:25:12.199Z,20.87
2018-11-11T06:27:48.506Z,22.43
2018-11-11T06:30:26.692Z,21.83
2018-11-11T06:33:05.527Z,17.67
2018-11-11T06:35:40.066Z,20.67
2018-11-11T06:38:14.610Z,19.97
2018-11-11T06:40:49.025Z,20.33
2018-11-11T06:43:24.077Z,21.00
2018-11-11T06:45:59.848Z,19.30
2018-11-11T06:48:36.020Z,18.90
2018-11-11T06:51:12.057Z,17.37
2018-11-11T06:54:11.105Z,19.53
2018-11-11T06:56:46.390Z,18.57
2018-11-11T06:59:21.812Z,18.97
2018-11-11T07:01:57.965Z,19.80
2018-11-11T07:04:39.051Z,17.43
2018-11-11T07:07:13.632Z,18.17
2018-11-11T07:09:48.632Z,16.60
2018-11-11T07:12:23.975Z,17.13
2018-11-11T07:14:59.208Z,18.37
2018-11-11T07:17:34.674Z,16.90
2018-11-11T07:20:10.332Z,16.57
2018-11-11T07:22:44.962Z,18.33
2018-11-11T07:25:19.903Z,17.00
2018-11-11T07:27:54.951Z,19.07
2018-11-11T07:30:29.440Z,17.67
2018-11-11T07:33:04.523Z,17.13
2018-11-11T07:35:39.193Z,14.83
2018-11-11T07:38:13.508Z,15.80
2018-11-11T07:40:48.132Z,17.23
2018-11-11T07:43:23.503Z,19.00
2018-11-11T07:45:58.799Z,17.60
2018-11-11T07:48:34.131Z,18.07
2018-11-11T07:51:08.966Z,16.60
2018-11-11T08:15:21.439Z,13.90
2018-11-11T08:17:57.295Z,15.50
2018-11-11T08:20:32.605Z,15.50
2018-11-11T08:23:07.290Z,15.27
2018-11-11T08:25:42.423Z,17.17
2018-11-11T08:28:18.174Z,16.87
2018-11-11T08:33:40.300Z,14.77
2018-11-11T08:36:21.361Z,16.27
2018-11-11T08:38:59.752Z,14.53
2018-11-11T08:57:07.372Z,12.07
2018-11-11T08:59:42.876Z,14.57
2018-11-11T09:02:20.635Z,12.07
2018-11-11T09:04:56.748Z,12.90
2018-11-11T09:07:32.521Z,11.73
2018-11-11T09:10:10.737Z,11.50
2018-11-11T09:12:46.596Z,12.17
2018-11-11T09:15:22.243Z,12.13
2018-11-11T09:17:57.867Z,12.17
2018-11-11T09:20:33.912Z,12.33
2018-11-11T09:23:29.761Z,11.90
2018-11-11T09:26:05.880Z,10.77
2018-11-11T09:28:42.755Z,10.50
2018-11-11T09:31:19.048Z,10.80
2018-11-11T09:33:54.592Z,10.30
2018-11-11T09:36:29.660Z,10.17
2018-11-11T09:39:12.478Z,11.93
2018-11-11T09:41:52.524Z,11.40
2018-11-11T09:44:50.811Z,10.33
2018-11-11T10:08:55.581Z,8.93
2018-11-11T10:13:38.116Z,8.70
2018-11-11T10:16:20.974Z,8.90
2018-11-11T10:19:03.517Z,9.00
2018-11-11T10:22:53.871Z,8.47
2018-11-11T10:27:01.337Z,7.83
2018-11-11T10:30:44.958Z,7.47
2018-11-11T10:33:26.722Z,7.97
2018-11-11T10:36:06.498Z,7.97
2018-11-11T10:38:50.635Z,9.07
2018-11-11T10:41:30.551Z,7.40
2018-11-11T10:44:11.865Z,7.93
2018-11-11T10:46:57.591Z,7.10
2018-11-11T10:56:45.907Z,7.30
2018-11-11T10:59:20.378Z,7.50
2018-11-11T11:02:17.875Z,7.33
2018-11-11T11:04:57.666Z,6.50
2018-11-11T11:07:32.368Z,7.83
2018-11-11T11:10:10.131Z,7.30
2018-11-11T11:12:46.037Z,7.80
2018-11-11T11:15:28.029Z,7.43
2018-11-11T11:18:03.455Z,7.00
2018-11-11T11:20:40.149Z,7.30
2018-11-11T11:23:14.725Z,6.90
2018-11-11T11:25:50.690Z,6.73
2018-11-11T11:28:25.697Z,6.60
2018-11-11T11:31:00.147Z,8.27
2018-11-11T11:33:36.509Z,6.30
2018-11-11T11:36:11.696Z,6.73
2018-11-11T11:38:46.336Z,6.40
2018-11-11T11:41:21.004Z,6.37
2018-11-11T11:43:56.662Z,7.40
2018-11-11T11:46:31.043Z,6.83
2018-11-11T11:49:05.312Z,6.50
2018-11-11T11:51:40.312Z,6.77
2018-11-11T11:54:14.731Z,6.53
2018-11-11T11:56:49.654Z,6.20
2018-11-11T11:59:24.000Z,7.10
2018-11-11T12:01:59.906Z,6.00
2018-11-11T12:04:34.160Z,7.00
2018-11-11T12:07:08.679Z,6.30
2018-11-11T12:09:44.132Z,7.00
2018-11-11T12:12:22.071Z,6.57
2018-11-11T12:14:56.546Z,5.73
2018-11-11T12:17:33.017Z,5.03
2018-11-11T12:20:09.964Z,5.40
2018-11-11T12:22:44.437Z,5.77
2018-11-11T12:25:22.644Z,5.80
2018-11-11T12:27:59.168Z,5.90
2018-11-11T12:30:35.914Z,5.83
2018-11-11T12:33:12.770Z,5.00
2018-11-11T12:35:47.239Z,4.90
2018-11-11T12:38:22.340Z,5.60
2018-11-11T12:40:56.691Z,5.73
2018-11-11T12:43:34.200Z,4.70
2018-11-11T12:46:08.571Z,5.00
2018-11-11T12:48:43.286Z,4.67
2018-11-11T12:51:19.252Z,4.00
2018-11-11T12:53:53.723Z,4.20
2018-11-11T12:56:30.015Z,3.93
2018-11-11T12:59:04.468Z,4.20
2018-11-11T13:01:39.677Z,4.30
2018-11-11T13:04:14.153Z,4.83
2018-11-11T13:06:49.199Z,4.20
2018-11-11T13:09:26.047Z,4.40
2018-11-11T13:12:03.624Z,4.50
2018-11-11T13:14:37.848Z,5.77
2018-11-11T13:17:15.453Z,4.40
2018-11-11T13:22:33.586Z,5.50
2018-11-11T13:25:10.291Z,5.33
2018-11-11T13:27:46.347Z,5.73
2018-11-11T13:30:23.283Z,5.73
2018-11-11T13:33:01.095Z,6.50
2018-11-11T13:35:39.293Z,6.40
2018-11-11T13:38:14.377Z,6.87
2018-11-11T13:40:48.910Z,5.80
2018-11-11T13:43:31.559Z,6.33
2018-11-11T13:46:06.575Z,5.90
2018-11-11T13:48:40.997Z,6.57
2018-11-11T13:51:17.839Z,6.70
2018-11-11T13:53:52.259Z,7.97
2018-11-11T13:56:27.912Z,6.97
2018-11-11T13:59:02.355Z,6.53
2018-11-11T14:01:38.445Z,6.80
2018-11-11T14:04:13.444Z,6.83
2018-11-11T14:06:48.750Z,7.70
2018-11-11T14:09:25.063Z,9.40
2018-11-11T14:12:01.642Z,8.00
2018-11-11T14:14:36.124Z,7.70
2018-11-11T14:17:11.243Z,8.73
2018-11-11T14:19:45.759Z,8.50
2018-11-11T14:22:22.590Z,9.27
2018-11-11T14:24:58.324Z,10.20
2018-11-11T14:27:39.500Z,9.73
2018-11-11T14:30:16.913Z,9.70
2018-11-11T14:32:54.307Z,11.93
2018-11-11T14:35:29.015Z,11.17
2018-11-11T14:38:03.589Z,9.90
2018-11-11T14:40:38.143Z,10.80
2018-11-11T14:43:14.952Z,13.50
2018-11-11T14:45:52.136Z,10.30
2018-11-11T14:48:26.590Z,11.50
2018-11-11T14:51:01.813Z,10.60
2018-11-11T14:53:36.140Z,12.20
2018-11-11T14:56:12.980Z,9.77
2018-11-11T14:58:48.585Z,10.87
2018-11-11T15:01:24.577Z,13.43
2018-11-11T15:04:03.475Z,10.73
2018-11-11T15:30:51.533Z,10.80
2018-11-11T15:33:28.207Z,10.73
2018-11-11T15:36:07.148Z,11.83
2018-11-11T15:38:43.207Z,10.90
2018-11-11T15:41:19.222Z,10.13
2018-11-11T15:43:55.913Z,10.67
2018-11-11T15:46:31.385Z,13.33
2018-11-11T15:49:06.773Z,13.03
2018-11-11T15:51:43.827Z,12.53
2018-11-11T15:54:21.816Z,13.30
2018-11-11T15:56:56.974Z,14.10
2018-11-11T15:59:32.745Z,12.13
2018-11-11T16:02:08.771Z,12.90
2018-11-11T16:04:43.486Z,12.90
2018-11-11T16:07:18.107Z,12.50
2018-11-11T16:09:54.039Z,12.07
2018-11-11T16:12:32.845Z,12.77
2018-11-11T16:15:27.141Z,12.83
2018-11-11T16:23:49.188Z,15.27
2018-11-11T16:26:26.126Z,15.80
2018-11-11T16:29:05.805Z,17.43
2018-11-11T16:32:07.679Z,18.23
2018-11-11T16:37:56.318Z,15.73
2018-11-11T16:40:37.724Z,19.07
2018-11-11T16:43:16.238Z,16.20
2018-11-11T16:45:53.850Z,17.80
2018-11-11T16:48:29.623Z,16.73
2018-11-11T16:51:07.486Z,17.00
2018-11-11T16:53:44.752Z,16.30
2018-11-11T16:56:23.296Z,16.17
2018-11-11T16:59:04.290Z,16.83
2018-11-11T17:01:46.412Z,17.30
2018-11-11T17:07:35.400Z,16.53
2018-11-11T17:10:19.411Z,14.97
2018-11-11T17:13:02.605Z,15.30
2018-11-11T17:15:38.953Z,13.87
2018-11-11T17:18:15.363Z,15.23
2018-11-11T17:20:53.060Z,15.80
2018-11-11T17:23:36.120Z,15.40
2018-11-11T17:26:11.796Z,15.10
2018-11-11T17:28:48.811Z,14.13
2018-11-11T17:31:37.951Z,15.93
2018-11-11T17:34:14.407Z,15.30
2018-11-11T17:36:52.942Z,14.30
2018-11-11T17:39:37.354Z,14.37
2018-11-11T17:42:19.867Z,15.70
2018-11-11T17:44:56.281Z,16.35
2018-11-11T17:47:31.624Z,14.07
2018-11-11T17:50:16.395Z,12.90
2018-11-11T17:52:52.879Z,12.87
2018-11-11T17:55:31.029Z,15.20
2018-11-11T17:58:07.703Z,16.80
2018-11-11T18:00:44.323Z,14.83
2018-11-11T18:03:18.801Z,14.03
2018-11-11T18:05:53.124Z,14.17
2018-11-11T18:08:28.012Z,14.47
2018-11-11T18:11:05.200Z,14.50
2018-11-11T18:13:42.783Z,15.27
2018-11-11T18:16:22.786Z,15.00
2018-11-11T18:19:02.312Z,13.33
2018-11-11T18:21:52.063Z,13.50
2018-11-11T18:24:45.480Z,15.33
2018-11-11T18:27:28.818Z,15.10
2018-11-11T18:31:41.407Z,14.10
2018-11-11T18:34:16.494Z,16.10
2018-11-11T18:36:52.927Z,15.83
2018-11-11T18:39:37.061Z,15.23
2018-11-11T18:42:17.853Z,14.50
2018-11-11T18:44:54.539Z,14.50
2018-11-11T18:47:29.585Z,12.93
2018-11-11T18:50:16.591Z,14.50
2018-11-11T18:52:53.167Z,15.20
2018-11-11T18:55:29.819Z,15.73
2018-11-11T18:58:04.388Z,14.80
2018-11-11T19:00:50.178Z,14.20
2018-11-11T19:03:24.873Z,15.37
2018-11-11T19:05:59.563Z,14.57
2018-11-11T19:08:36.335Z,15.30
2018-11-11T19:13:55.571Z,15.60
2018-11-11T19:16:32.265Z,15.20
2018-11-11T19:19:09.363Z,14.90
2018-11-11T19:21:45.839Z,14.43
2018-11-11T19:24:22.367Z,14.63
2018-11-11T19:27:00.303Z,15.97
2018-11-11T19:29:34.897Z,16.60
2018-11-11T19:32:12.484Z,14.27
2018-11-11T19:34:47.286Z,14.70
2018-11-11T19:37:25.903Z,14.17
2018-11-11T19:40:00.452Z,13.90
2018-11-11T19:42:47.149Z,14.90
2018-11-11T19:45:23.173Z,15.40
2018-11-11T19:47:59.884Z,13.10
2018-11-11T19:50:37.624Z,15.37
2018-11-11T19:53:13.241Z,14.00
2018-11-11T19:55:49.835Z,14.97
2018-11-11T19:58:25.007Z,15.70
2018-11-11T20:01:01.597Z,13.47
2018-11-11T20:03:37.304Z,16.30
2018-11-11T20:06:13.707Z,14.93
2018-11-11T20:08:48.530Z,15.13
2018-11-11T20:11:27.179Z,14.00
2018-11-11T20:14:03.419Z,13.60
2018-11-11T20:16:38.312Z,15.17
2018-11-11T20:19:14.836Z,16.20
2018-11-11T20:21:51.718Z,13.93
2018-11-11T20:24:27.520Z,15.27
2018-11-11T20:27:04.441Z,14.23
2018-11-11T20:29:38.980Z,13.50
2018-11-11T20:32:16.169Z,12.67
2018-11-11T20:34:50.799Z,13.00
2018-11-11T20:37:26.884Z,13.13
2018-11-11T20:40:01.268Z,13.27
2018-11-11T20:42:44.941Z,16.30
2018-11-11T20:45:23.228Z,13.80
2018-11-11T20:47:58.056Z,13.07
2018-11-11T20:53:15.821Z,13.60
2018-11-11T20:55:50.694Z,12.10
2018-11-11T20:58:26.847Z,12.70
2018-11-11T21:01:04.288Z,12.27
2018-11-11T21:03:39.304Z,15.23
2018-11-11T21:06:14.348Z,12.77
2018-11-11T21:08:50.496Z,11.10
2018-11-11T21:11:28.322Z,13.43
2018-11-11T21:14:03.763Z,12.67
2018-11-11T21:16:38.227Z,13.37
2018-11-11T21:19:14.298Z,11.83
2018-11-11T21:21:50.152Z,12.17
2018-11-11T21:24:26.755Z,12.50
2018-11-11T21:27:03.379Z,13.30
2018-11-11T21:29:38.908Z,13.57
2018-11-11T21:32:14.208Z,12.43
2018-11-11T21:34:48.885Z,17.03
2018-11-11T21:37:25.433Z,12.93
2018-11-11T21:40:00.187Z,11.87
2018-11-11T21:42:35.211Z,11.73
2018-11-11T21:45:11.945Z,12.77
2018-11-11T21:47:46.608Z,12.37
2018-11-11T21:50:23.343Z,12.57
2018-11-11T21:53:08.713Z,13.57
2018-11-11T21:55:43.206Z,12.63
2018-11-11T21:58:17.840Z,12.47
2018-11-11T22:00:53.339Z,11.90
2018-11-11T22:03:27.839Z,11.60
2018-11-11T22:06:02.388Z,12.57
2018-11-11T22:08:37.600Z,11.83
2018-11-11T22:11:12.811Z,13.27
2018-11-11T22:13:48.209Z,15.73
2018-11-11T22:16:22.752Z,14.13
2018-11-11T22:18:58.196Z,11.83
2018-11-11T22:21:33.768Z,12.10
2018-11-11T22:24:08.949Z,13.17
2018-11-11T22:26:44.507Z,12.07
2018-11-11T22:29:19.173Z,12.10
2018-11-11T22:31:54.762Z,13.20
2018-11-11T22:34:29.101Z,11.97
2018-11-11T22:37:04.960Z,13.20
2018-11-11T22:39:40.015Z,12.73
2018-11-11T22:42:17.017Z,17.30
2018-11-11T22:44:52.320Z,13.00
2018-11-11T22:47:26.784Z,12.07
2018-11-11T22:50:08.507Z,10.57
2018-11-11T22:52:42.908Z,13.03
2018-11-11T22:55:17.177Z,12.90
2018-11-11T22:57:51.773Z,11.30
2018-11-11T23:00:34.044Z,10.73
2018-11-11T23:03:08.572Z,11.20
2018-11-11T23:05:43.038Z,11.17
2018-11-11T23:08:17.514Z,12.07
2018-11-11T23:10:52.450Z,11.73
2018-11-11T23:13:27.459Z,11.83
2018-11-11T23:16:02.441Z,12.10
2018-11-11T23:18:37.535Z,11.00
2018-11-11T23:21:13.064Z,11.30
2018-11-11T23:23:48.044Z,11.00
2018-11-11T23:26:22.608Z,11.80
2018-11-11T23:28:58.295Z,10.30
2018-11-11T23:31:32.752Z,11.60
2018-11-11T23:34:07.867Z,11.60
2018-11-11T23:36:43.152Z,11.37
2018-11-11T23:39:17.736Z,13.53
2018-11-11T23:41:52.171Z,12.63
2018-11-11T23:44:27.172Z,14.23
2018-11-11T23:47:02.104Z,12.30
2018-11-11T23:49:36.439Z,13.37
2018-11-11T23:52:11.470Z,12.40
2018-11-11T23:54:45.790Z,11.90
2018-11-11T23:57:20.261Z,13.10
2018-11-11T23:59:54.800Z,14.37
